Time;durP1;ratioP1;P1;durP2;ratioP2;P2;SDS_P1;SDS_P2;PMS_P1;PMS_P2;Temp;Humidity;BMP_temperature;BMP_pressure;BME280_temperature;BME280_humidity;BME280_pressure;Samples;Min_cycle;Max_cycle;Signal;HPM_P1;HPM_P2
2022/10/13 00:00:17;;;;;;;0.60;0.60;;;;;;;16.19;100.00;100943.06;5090806;28;20275;-72
2022/10/13 00:02:43;;;;;;;0.70;0.70;;;;;;;16.29;100.00;100968.41;5090634;28;20205;-72
2022/10/13 00:05:11;;;;;;;0.70;0.70;;;;;;;16.31;100.00;100966.66;5090328;28;20201;-72
2022/10/13 00:07:37;;;;;;;0.70;0.70;;;;;;;16.27;100.00;100962.25;5037120;28;20198;-72
2022/10/13 00:10:05;;;;;;;0.70;0.70;;;;;;;16.13;100.00;100953.47;5080178;28;20665;-72
2022/10/13 00:12:34;;;;;;;0.60;0.60;;;;;;;16.25;100.00;100964.00;5090679;28;20198;-71
2022/10/13 00:15:03;;;;;;;0.60;0.60;;;;;;;15.99;100.00;100928.94;5091102;28;20205;-72
2022/10/13 00:17:30;;;;;;;0.60;0.60;;;;;;;15.52;100.00;100878.06;5089859;28;20237;-72
2022/10/13 00:19:57;;;;;;;0.70;0.70;;;;;;;15.96;100.00;100970.78;5090516;28;20689;-72
2022/10/13 00:22:24;;;;;;;0.70;0.70;;;;;;;15.91;100.00;100967.25;5090305;28;20239;-72
2022/10/13 00:24:51;;;;;;;0.60;0.60;;;;;;;15.73;100.00;100938.38;5090366;28;20562;-72
2022/10/13 00:27:18;;;;;;;0.70;0.70;;;;;;;15.88;100.00;100968.09;5090081;28;20198;-72
2022/10/13 00:29:44;;;;;;;0.60;0.60;;;;;;;15.87;100.00;100960.28;5090377;28;20222;-72
2022/10/13 00:32:13;;;;;;;0.70;0.70;;;;;;;15.85;100.00;100941.94;5089952;28;20210;-72
2022/10/13 00:34:40;;;;;;;0.60;0.60;;;;;;;15.86;100.00;100964.63;5090087;28;20210;-72
2022/10/13 00:37:07;;;;;;;0.65;0.65;;;;;;;15.70;100.00;100935.69;5054972;28;20206;-72
2022/10/13 00:39:34;;;;;;;0.70;0.70;;;;;;;15.85;100.00;100956.75;5071194;28;20209;-72
2022/10/13 00:42:01;;;;;;;0.70;0.70;;;;;;;15.82;100.00;100952.38;5076642;28;20206;-72
2022/10/13 00:44:58;;;;;;;0.60;0.60;;;;;;;16.06;100.00;100956.91;5081796;28;20293;-72
2022/10/13 00:47:30;;;;;;;1.45;1.45;;;;;;;15.91;100.00;100956.78;5050633;28;20195;-72
2022/10/13 00:49:58;;;;;;;0.60;0.60;;;;;;;15.76;100.00;100956.69;5084871;28;20232;-72
2022/10/13 00:52:26;;;;;;;0.70;0.70;;;;;;;15.73;100.00;100951.44;5078963;28;20214;-72
2022/10/13 00:54:55;;;;;;;0.60;0.60;;;;;;;15.56;100.00;100946.06;5089913;28;20232;-72
2022/10/13 00:57:23;;;;;;;0.70;0.70;;;;;;;15.61;100.00;100961.78;5090623;28;20658;-71
2022/10/13 00:59:50;;;;;;;0.60;0.60;;;;;;;15.57;100.00;100966.13;5055097;28;20197;-71
2022/10/13 01:02:17;;;;;;;0.60;0.60;;;;;;;15.49;100.00;100954.69;5084868;28;20203;-72
2022/10/13 01:04:47;;;;;;;0.60;0.60;;;;;;;15.60;100.00;100967.88;5087568;28;20613;-73
2022/10/13 01:07:16;;;;;;;0.68;0.68;;;;;;;15.46;100.00;100948.53;5090862;28;20202;-72
2022/10/13 01:09:44;;;;;;;0.70;0.70;;;;;;;15.43;100.00;100970.31;5054995;28;20226;-72
2022/10/13 01:12:26;;;;;;;0.70;0.70;;;;;;;15.56;100.00;100963.47;5044433;28;20556;-72
2022/10/13 01:14:58;;;;;;;0.90;0.90;;;;;;;15.51;100.00;100959.97;5087479;28;20213;-72
2022/10/13 01:17:33;;;;;;;0.70;0.70;;;;;;;15.51;100.00;100955.63;5090885;28;20230;-72
2022/10/13 01:20:32;;;;;;;0.70;0.70;;;;;;;15.59;100.00;100968.75;5090453;28;20247;-72
2022/10/13 01:23:13;;;;;;;0.60;0.60;;;;;;;15.48;100.00;100959.91;5090639;28;20202;-72
2022/10/13 01:25:58;;;;;;;0.70;0.70;;;;;;;15.49;100.00;100961.66;5090129;28;20205;-72
2022/10/13 01:28:41;;;;;;;0.60;0.60;;;;;;;15.31;100.00;100937.09;5091222;28;20218;-72
2022/10/13 01:31:17;;;;;;;0.70;0.70;;;;;;;15.35;100.00;100953.66;5094400;28;20199;-72
2022/10/13 01:33:50;;;;;;;0.70;0.70;;;;;;;15.30;100.00;100953.63;5094421;28;20262;-72
2022/10/13 01:36:25;;;;;;;0.65;0.65;;;;;;;15.29;100.00;100954.50;5093931;28;20251;-72
2022/10/13 01:38:57;;;;;;;0.70;0.70;;;;;;;15.15;100.00;100939.53;5094378;28;20252;-72
2022/10/13 01:41:29;;;;;;;0.60;0.60;;;;;;;15.25;100.00;100952.72;5093649;28;20226;-72
2022/10/13 01:44:03;;;;;;;0.70;0.70;;;;;;;15.23;100.00;100943.97;5058502;28;20260;-72
2022/10/13 01:46:35;;;;;;;0.70;0.70;;;;;;;15.21;100.00;100944.81;5094109;28;20198;-71
2022/10/13 01:49:07;;;;;;;0.60;0.60;;;;;;;15.19;100.00;100941.31;5093627;28;20725;-72
2022/10/13 01:51:35;;;;;;;0.70;0.70;;;;;;;15.07;100.00;100943.81;5086182;28;20201;-72
2022/10/13 01:54:02;;;;;;;1.00;1.00;;;;;;;15.05;100.00;100943.81;5093990;28;20197;-72
2022/10/13 01:56:28;;;;;;;0.70;0.70;;;;;;;15.03;100.00;100935.06;5093559;28;20653;-72
2022/10/13 01:58:58;;;;;;;0.60;0.60;;;;;;;15.03;100.00;100910.66;5093683;28;20194;-71
2022/10/13 02:01:38;;;;;;;0.60;0.60;;;;;;;15.10;100.00;100915.09;5093628;28;20194;-72
2022/10/13 02:04:17;;;;;;;0.60;0.60;;;;;;;15.08;100.00;100902.03;5093640;28;20911;-72
2022/10/13 02:06:47;;;;;;;0.65;0.65;;;;;;;15.06;100.00;100898.53;5093686;28;20632;-71
2022/10/13 02:09:22;;;;;;;0.65;0.65;;;;;;;15.19;100.00;100910.84;5093407;28;20743;-72
2022/10/13 02:11:56;;;;;;;0.60;0.60;;;;;;;15.14;100.00;100917.75;5093566;28;20197;-72
2022/10/13 02:14:26;;;;;;;0.60;0.60;;;;;;;15.11;100.00;100912.50;5093828;28;20198;-72
2022/10/13 02:16:56;;;;;;;0.70;0.70;;;;;;;15.12;100.00;100913.41;5093709;28;20226;-72
2022/10/13 02:19:23;;;;;;;0.60;0.60;;;;;;;15.05;100.00;100906.34;5093071;28;20209;-72
2022/10/13 02:21:52;;;;;;;0.60;0.60;;;;;;;15.03;100.00;100903.72;5093557;28;20205;-72
2022/10/13 02:24:19;;;;;;;0.68;0.68;;;;;;;14.98;100.00;100905.44;5093005;28;20198;-72
2022/10/13 02:26:47;;;;;;;0.70;0.70;;;;;;;14.96;100.00;100896.69;5093590;28;20194;-72
2022/10/13 02:29:16;;;;;;;0.70;0.70;;;;;;;14.96;100.00;100886.22;5093030;28;20670;-71
2022/10/13 02:31:44;;;;;;;0.60;0.60;;;;;;;15.02;100.00;100894.13;5078907;28;20583;-72
2022/10/13 02:34:13;;;;;;;0.60;0.60;;;;;;;15.07;100.00;100896.78;5084110;28;20198;-72
2022/10/13 02:36:40;;;;;;;0.70;0.70;;;;;;;15.03;100.00;100898.50;5092989;28;20639;-73
2022/10/13 02:39:08;;;;;;;0.70;0.70;;;;;;;15.13;100.00;100895.09;5093060;28;20641;-72
2022/10/13 02:41:35;;;;;;;0.60;0.60;;;;;;;14.57;100.00;100818.81;5092620;28;20346;-72
2022/10/13 02:44:02;;;;;;;0.98;0.98;;;;;;;14.94;100.00;100887.97;5091075;28;20202;-73
2022/10/13 02:46:29;;;;;;;0.60;0.60;;;;;;;14.72;100.00;100885.97;5072085;28;20619;-72
2022/10/13 02:48:55;;;;;;;0.60;0.60;;;;;;;14.82;100.00;100893.94;5081976;28;20236;-72
2022/10/13 02:51:23;;;;;;;0.60;0.60;;;;;;;14.89;100.00;100890.53;5084131;28;20213;-72
2022/10/13 02:53:50;;;;;;;0.80;0.80;;;;;;;14.77;100.00;100894.72;5079224;28;20645;-72
2022/10/13 02:56:18;;;;;;;0.70;0.70;;;;;;;14.68;100.00;100882.47;5087590;28;20194;-73
2022/10/13 02:58:44;;;;;;;0.60;0.60;;;;;;;14.84;100.00;100880.88;5091678;28;20457;-73
2022/10/13 03:01:13;;;;;;;0.70;0.70;;;;;;;14.91;100.00;100882.69;5092426;28;20209;-73
2022/10/13 03:03:41;;;;;;;0.60;0.60;;;;;;;14.76;100.00;100885.16;5092019;28;20612;-73
2022/10/13 03:06:08;;;;;;;0.70;0.70;;;;;;;14.59;100.00;100863.22;5057034;28;20198;-73
2022/10/13 03:08:38;;;;;;;0.65;0.65;;;;;;;14.72;100.00;100891.19;5092406;28;20205;-73
2022/10/13 03:11:04;;;;;;;0.80;0.80;;;;;;;14.80;100.00;100884.34;5090663;28;20452;-73
2022/10/13 03:13:32;;;;;;;0.82;0.82;;;;;;;14.93;100.00;100882.72;5079670;28;20203;-73
2022/10/13 03:15:58;;;;;;;0.68;0.68;;;;;;;14.84;100.00;100899.16;5072403;28;20203;-73
2022/10/13 03:18:25;;;;;;;0.60;0.60;;;;;;;14.75;100.00;100905.16;5072055;28;20235;-72
2022/10/13 03:20:59;;;;;;;0.60;0.60;;;;;;;14.78;100.00;100872.97;5072225;28;20351;-74
2022/10/13 03:23:26;;;;;;;0.60;0.60;;;;;;;14.63;100.00;100896.31;5078199;28;20198;-74
2022/10/13 03:25:55;;;;;;;0.70;0.70;;;;;;;14.50;100.00;100868.31;5077940;28;20627;-72
2022/10/13 03:28:23;;;;;;;0.60;0.60;;;;;;;14.50;100.00;100903.13;5079501;28;20662;-72
2022/10/13 03:30:49;;;;;;;0.77;0.77;;;;;;;14.39;100.00;100908.22;5087985;28;20724;-72
2022/10/13 03:33:17;;;;;;;4.57;1.63;;;;;;;14.43;100.00;100884.75;5090869;28;20206;-73
2022/10/13 03:35:43;;;;;;;0.85;0.85;;;;;;;14.52;100.00;100896.19;5089164;28;20447;-73
2022/10/13 03:38:10;;;;;;;1.02;1.02;;;;;;;14.55;100.00;100903.19;5090419;28;20209;-74
2022/10/13 03:40:37;;;;;;;0.70;0.70;;;;;;;14.30;100.00;100884.56;5086349;28;20199;-73
2022/10/13 03:43:05;;;;;;;0.70;0.70;;;;;;;14.47;100.00;100910.03;5086242;28;20198;-73
2022/10/13 03:45:32;;;;;;;0.60;0.60;;;;;;;14.26;100.00;100908.88;5090016;28;20259;-73
2022/10/13 03:47:59;;;;;;;0.70;0.70;;;;;;;14.18;100.00;100910.50;5090559;28;20202;-74
2022/10/13 03:50:26;;;;;;;0.60;0.60;;;;;;;14.13;100.00;100909.56;5091634;28;20230;-71
2022/10/13 03:52:53;;;;;;;0.98;0.98;;;;;;;14.04;100.00;100892.91;5091057;28;20194;-73
2022/10/13 03:55:20;;;;;;;0.60;0.60;;;;;;;13.87;100.00;100877.03;5090702;28;20198;-72
2022/10/13 03:57:47;;;;;;;0.60;0.60;;;;;;;13.96;100.00;100904.97;5091260;28;20198;-73
2022/10/13 04:00:16;;;;;;;1.00;1.00;;;;;;;13.94;100.00;100897.13;5091411;28;20194;-72
2022/10/13 04:02:43;;;;;;;0.70;0.70;;;;;;;13.80;100.00;100894.34;5055710;28;21098;-72
2022/10/13 04:05:12;;;;;;;0.70;0.70;;;;;;;13.93;100.00;100887.53;5050686;28;20206;-72
2022/10/13 04:07:39;;;;;;;0.70;0.70;;;;;;;13.74;100.00;100883.78;5091671;28;20194;-72
2022/10/13 04:10:07;;;;;;;0.70;0.70;;;;;;;13.79;100.00;100886.47;5091323;28;20226;-73
2022/10/13 04:12:33;;;;;;;0.70;0.70;;;;;;;13.78;100.00;100888.19;5091088;28;20674;-73
2022/10/13 04:15:00;;;;;;;0.70;0.70;;;;;;;13.80;100.00;100893.44;5090904;28;20634;-73
2022/10/13 04:17:28;;;;;;;0.70;0.70;;;;;;;13.91;100.00;100884.06;5091469;28;20238;-73
2022/10/13 04:19:55;;;;;;;0.60;0.60;;;;;;;13.80;100.00;100888.22;5090580;28;20198;-73
2022/10/13 04:22:23;;;;;;;0.70;0.70;;;;;;;13.66;100.00;100863.69;5091386;28;20206;-73
2022/10/13 04:24:50;;;;;;;0.63;0.63;;;;;;;13.83;100.00;100888.28;5090982;28;20194;-73
2022/10/13 04:27:18;;;;;;;0.70;0.70;;;;;;;13.85;100.00;100886.56;5053893;28;20206;-73
2022/10/13 04:29:45;;;;;;;0.60;0.60;;;;;;;13.85;100.00;100890.03;5090904;28;20222;-73
2022/10/13 04:32:12;;;;;;;0.70;0.70;;;;;;;13.84;100.00;100884.81;5091049;28;20217;-73
2022/10/13 04:34:40;;;;;;;0.60;0.60;;;;;;;13.93;100.00;100891.88;5091143;28;20213;-72
2022/10/13 04:37:07;;;;;;;0.60;0.60;;;;;;;13.79;100.00;100879.53;5090540;28;20643;-72
2022/10/13 04:39:33;;;;;;;0.95;0.95;;;;;;;13.75;100.00;100885.56;5090700;28;20658;-73
2022/10/13 04:42:00;;;;;;;0.77;0.77;;;;;;;13.72;100.00;100879.41;5090834;28;20202;-73
2022/10/13 04:44:27;;;;;;;1.00;1.00;;;;;;;13.78;100.00;100879.50;5090784;28;20205;-72
2022/10/13 04:46:54;;;;;;;0.70;0.70;;;;;;;13.74;100.00;100857.72;5090627;28;20194;-71
2022/10/13 04:49:21;;;;;;;0.63;0.63;;;;;;;13.84;100.00;100879.59;5090822;28;20226;-71
2022/10/13 04:51:49;;;;;;;2.17;1.98;;;;;;;13.94;100.00;100885.81;5090771;28;20206;-72
2022/10/13 04:54:15;;;;;;;0.70;0.70;;;;;;;13.78;100.00;100863.84;5090182;28;20197;-72
2022/10/13 04:56:45;;;;;;;0.60;0.60;;;;;;;14.01;100.00;100880.72;5090745;28;20209;-71
2022/10/13 04:59:12;;;;;;;1.60;1.50;;;;;;;13.94;100.00;100875.38;5090836;28;20220;-72
2022/10/13 05:01:39;;;;;;;0.60;0.60;;;;;;;14.12;100.00;100886.97;5069275;28;20207;-72
2022/10/13 05:04:05;;;;;;;0.75;0.75;;;;;;;13.91;100.00;100850.16;5081060;28;20198;-72
2022/10/13 05:06:34;;;;;;;0.70;0.70;;;;;;;14.26;100.00;100890.63;5087802;28;20202;-72
2022/10/13 05:09:04;;;;;;;0.70;0.70;;;;;;;14.21;100.00;100892.28;5089540;28;20199;-73
2022/10/13 05:11:32;;;;;;;0.70;0.70;;;;;;;14.00;100.00;100897.22;5091569;28;20202;-73
2022/10/13 05:13:59;;;;;;;0.70;0.70;;;;;;;13.97;100.00;100896.28;5076807;28;20195;-71
2022/10/13 05:16:26;;;;;;;1.65;1.65;;;;;;;13.75;100.00;100897.69;5083723;28;20239;-73
2022/10/13 05:18:54;;;;;;;0.73;0.73;;;;;;;13.82;100.00;100891.72;5080202;28;20202;-71
2022/10/13 05:21:24;;;;;;;0.70;0.70;;;;;;;14.02;100.00;100900.69;5088576;28;20210;-71
2022/10/13 05:23:53;;;;;;;1.30;1.30;;;;;;;14.07;100.00;100904.25;5091863;28;20208;-77
2022/10/13 05:26:23;;;;;;;1.15;1.15;;;;;;;14.44;100.00;100894.34;5062397;28;20191;-72
2022/10/13 05:28:50;;;;;;;0.60;0.60;;;;;;;14.45;100.00;100903.94;5085023;28;20198;-71
2022/10/13 05:31:19;;;;;;;0.70;0.70;;;;;;;14.45;100.00;100906.56;5065346;28;20213;-74
2022/10/13 05:33:46;;;;;;;0.70;0.70;;;;;;;14.49;100.00;100905.69;5093118;28;20205;-73
2022/10/13 05:36:16;;;;;;;1.00;1.00;;;;;;;14.58;100.00;100885.84;5087183;28;20202;-71
2022/10/13 05:38:43;;;;;;;10.88;2.78;;;;;;;14.76;100.00;100911.25;5073701;28;20686;-72
2022/10/13 05:41:12;;;;;;;5.68;3.90;;;;;;;14.79;100.00;100930.47;5076455;28;20275;-72
2022/10/13 05:43:41;;;;;;;0.60;0.60;;;;;;;14.79;100.00;100908.69;5088136;28;20602;-72
2022/10/13 05:46:09;;;;;;;0.60;0.60;;;;;;;14.93;100.00;100901.00;5084015;28;20210;-74
2022/10/13 05:48:36;;;;;;;0.80;0.80;;;;;;;15.33;100.00;100940.59;5076618;28;20210;-74
2022/10/13 05:51:06;;;;;;;6.50;2.17;;;;;;;15.41;100.00;100945.03;5079600;28;20229;-72
2022/10/13 05:53:37;;;;;;;0.70;0.70;;;;;;;15.32;100.00;100917.94;5070962;28;20217;-72
2022/10/13 05:56:08;;;;;;;0.60;0.60;;;;;;;15.36;100.00;100942.38;5072539;28;20210;-72
2022/10/13 05:58:39;;;;;;;1.38;1.38;;;;;;;15.26;100.00;100944.03;5062294;28;20207;-72
2022/10/13 06:01:09;;;;;;;0.63;0.63;;;;;;;15.32;100.00;100912.72;5080648;28;20202;-71
2022/10/13 06:03:37;;;;;;;0.70;0.70;;;;;;;15.60;100.00;100946.94;5061798;28;20663;-72
2022/10/13 06:06:05;;;;;;;0.85;0.85;;;;;;;15.71;100.00;100947.91;5061316;28;20207;-71
2022/10/13 06:08:31;;;;;;;0.60;0.60;;;;;;;15.79;100.00;100952.38;5072974;28;20569;-72
2022/10/13 06:10:58;;;;;;;0.98;0.98;;;;;;;15.65;100.00;100937.41;5066230;28;20218;-73
2022/10/13 06:13:25;;;;;;;0.70;0.70;;;;;;;15.79;100.00;100954.97;5073095;28;20210;-73
2022/10/13 06:15:52;;;;;;;0.80;0.80;;;;;;;15.79;100.00;100961.94;5086000;28;20195;-73
2022/10/13 06:18:20;;;;;;;0.68;0.68;;;;;;;15.91;100.00;100971.63;5079039;28;20713;-73
2022/10/13 06:20:47;;;;;;;0.70;0.70;;;;;;;15.75;100.00;100974.13;5059072;28;20210;-73
2022/10/13 06:23:13;;;;;;;0.63;0.63;;;;;;;15.56;100.00;100968.69;5053979;28;20221;-73
2022/10/13 06:25:47;;;;;;;0.70;0.70;;;;;;;15.38;100.00;100970.25;5073767;28;20674;-74
2022/10/13 06:28:13;;;;;;;1.42;1.33;;;;;;;15.15;100.00;100953.47;5046000;28;20268;-73
2022/10/13 06:30:41;;;;;;;3.15;2.17;;;;;;;15.16;100.00;100947.38;5086360;28;20223;-72
2022/10/13 06:33:08;;;;;;;1.58;1.58;;;;;;;15.19;100.00;100981.41;5081363;28;20202;-72
2022/10/13 06:35:37;;;;;;;0.75;0.75;;;;;;;15.32;100.00;100962.38;5071326;28;20235;-72
2022/10/13 06:38:03;;;;;;;0.80;0.80;;;;;;;15.48;100.00;100965.97;5072976;28;20202;-74
2022/10/13 06:40:30;;;;;;;0.70;0.70;;;;;;;15.72;100.00;100966.25;5072524;28;20206;-75
2022/10/13 06:42:57;;;;;;;0.70;0.70;;;;;;;15.95;100.00;100971.63;5072551;28;20202;-75
2022/10/13 06:45:24;;;;;;;0.70;0.70;;;;;;;16.20;100.00;100970.94;5072583;28;20241;-75
2022/10/13 06:47:52;;;;;;;0.63;0.63;;;;;;;16.57;100.00;100982.53;5072667;28;20210;-76
2022/10/13 06:50:19;;;;;;;0.80;0.80;;;;;;;16.67;100.00;100980.84;5054002;28;20223;-76
2022/10/13 06:52:47;;;;;;;0.70;0.70;;;;;;;16.95;100.00;100982.69;5086821;28;20199;-75
2022/10/13 06:55:14;;;;;;;0.70;0.70;;;;;;;17.04;100.00;100981.88;5072262;28;20592;-75
2022/10/13 06:57:41;;;;;;;0.60;0.60;;;;;;;17.16;100.00;100964.41;5072598;28;20593;-76
2022/10/13 07:00:09;;;;;;;0.70;0.70;;;;;;;17.12;100.00;100936.44;5081787;28;20252;-76
2022/10/13 07:02:36;;;;;;;0.80;0.80;;;;;;;17.35;100.00;100992.44;5079046;28;20209;-76
2022/10/13 07:05:03;;;;;;;0.60;0.60;;;;;;;17.37;100.00;100991.56;5062596;28;20647;-77
2022/10/13 07:07:30;;;;;;;0.70;0.70;;;;;;;17.42;100.00;100956.59;5061963;28;20207;-77
2022/10/13 07:09:58;;;;;;;1.05;1.05;;;;;;;17.86;100.00;100993.38;5078133;28;20206;-76
2022/10/13 07:12:25;;;;;;;0.98;0.95;;;;;;;18.07;100.00;100984.63;5073223;28;20663;-77
2022/10/13 07:14:52;;;;;;;0.60;0.60;;;;;;;18.23;100.00;100987.22;5084665;28;20206;-77
2022/10/13 07:17:18;;;;;;;0.60;0.60;;;;;;;18.49;100.00;100992.41;5075346;28;20222;-77
2022/10/13 07:19:47;;;;;;;0.60;0.60;;;;;;;18.52;100.00;100988.94;5075818;28;20626;-77
2022/10/13 07:22:14;;;;;;;0.70;0.70;;;;;;;18.63;100.00;100995.03;5077383;28;20717;-77
2022/10/13 07:24:41;;;;;;;0.73;0.73;;;;;;;18.80;100.00;100999.34;5075723;28;20202;-77
2022/10/13 07:27:09;;;;;;;1.83;1.40;;;;;;;18.95;100.00;101000.16;5069853;28;20207;-77
2022/10/13 07:29:36;;;;;;;0.68;0.68;;;;;;;18.47;100.00;100999.44;5053490;28;20261;-78
2022/10/13 07:32:03;;;;;;;0.70;0.70;;;;;;;18.61;100.00;100991.56;5072671;28;20253;-77
2022/10/13 07:34:29;;;;;;;0.70;0.70;;;;;;;18.49;100.00;100962.66;5076131;28;20635;-76
2022/10/13 07:36:57;;;;;;;0.60;0.60;;;;;;;18.33;100.00;100985.47;5067901;28;20528;-75
2022/10/13 07:39:23;;;;;;;0.60;0.60;;;;;;;18.37;100.00;100991.59;5080632;28;20209;-77
2022/10/13 07:41:50;;;;;;;0.60;0.60;;;;;;;18.53;100.00;100990.69;5065184;28;20202;-75
2022/10/13 07:44:18;;;;;;;0.60;0.60;;;;;;;18.63;100.00;100946.00;5058687;28;20203;-75
2022/10/13 07:46:45;;;;;;;0.80;0.80;;;;;;;18.98;97.31;100974.75;5054676;28;20218;-75
2022/10/13 07:49:12;;;;;;;0.93;0.93;;;;;;;19.23;94.92;100963.19;5061962;28;20203;-76
2022/10/13 07:51:39;;;;;;;0.73;0.73;;;;;;;19.68;93.00;100984.84;5062883;28;20238;-76
2022/10/13 07:54:06;;;;;;;0.70;0.70;;;;;;;19.75;89.56;100973.41;5043949;28;20210;-76
2022/10/13 07:56:33;;;;;;;0.77;0.77;;;;;;;20.13;88.14;100991.47;5044050;28;20206;-77
2022/10/13 07:59:03;;;;;;;0.60;0.60;;;;;;;20.12;87.22;100984.50;5062666;28;20207;-75
2022/10/13 08:01:31;;;;;;;0.60;0.60;;;;;;;20.32;86.52;100994.84;5055955;28;20215;-76
2022/10/13 08:03:58;;;;;;;0.60;0.60;;;;;;;20.13;87.70;100988.84;5051170;28;20616;-77
2022/10/13 08:06:25;;;;;;;0.70;0.70;;;;;;;20.45;86.15;100975.38;5056600;28;20695;-77
2022/10/13 08:08:52;;;;;;;0.65;0.65;;;;;;;20.27;84.51;100993.13;5058861;28;20210;-77
2022/10/13 08:11:19;;;;;;;0.63;0.63;;;;;;;19.99;84.06;100991.63;5079307;28;20291;-77
2022/10/13 08:13:48;;;;;;;0.55;0.55;;;;;;;20.18;83.22;100987.94;5072835;28;20253;-77
2022/10/13 08:16:14;;;;;;;0.60;0.60;;;;;;;20.54;82.16;100989.34;5085420;28;20860;-77
2022/10/13 08:18:43;;;;;;;0.60;0.60;;;;;;;20.50;78.16;100984.13;5074547;28;20298;-77
2022/10/13 08:21:13;;;;;;;0.68;0.68;;;;;;;20.63;77.00;100989.22;5069112;28;20214;-75
2022/10/13 08:23:39;;;;;;;0.70;0.70;;;;;;;19.96;74.07;100948.66;5085174;28;20267;-76
2022/10/13 08:26:15;;;;;;;0.50;0.50;;;;;;;20.04;74.54;100963.50;5076062;28;20201;-72
2022/10/13 08:28:42;;;;;;;0.75;0.75;;;;;;;19.77;75.07;100976.88;5051612;28;20205;-71
2022/10/13 08:31:09;;;;;;;0.60;0.60;;;;;;;19.83;79.39;100978.59;5070334;28;20233;-71
2022/10/13 08:33:35;;;;;;;0.65;0.65;;;;;;;20.03;79.61;100982.81;5079420;28;20206;-72
2022/10/13 08:36:04;;;;;;;0.57;0.57;;;;;;;20.42;76.76;100980.69;5076389;28;20218;-73
2022/10/13 08:38:30;;;;;;;1.23;0.98;;;;;;;20.23;76.52;100975.56;5069939;28;20683;-71
2022/10/13 08:40:57;;;;;;;0.60;0.60;;;;;;;20.49;78.03;100979.72;5070099;28;20198;-73
2022/10/13 08:43:25;;;;;;;1.15;1.10;;;;;;;20.90;76.34;100982.75;5070765;28;20211;-73
2022/10/13 08:45:55;;;;;;;0.60;0.60;;;;;;;20.98;73.72;100964.19;5070321;28;20206;-73
2022/10/13 08:48:27;;;;;;;0.70;0.70;;;;;;;21.29;71.62;100965.56;5073955;28;20272;-73
2022/10/13 08:50:59;;;;;;;1.00;1.00;;;;;;;20.75;71.82;100960.09;5075822;28;20230;-73
2022/10/13 08:53:30;;;;;;;0.70;0.70;;;;;;;20.96;73.40;100974.75;5070782;28;20202;-73
2022/10/13 08:55:59;;;;;;;0.85;0.85;;;;;;;20.91;73.00;100959.88;5051579;28;20821;-73
2022/10/13 08:58:30;;;;;;;0.70;0.70;;;;;;;20.96;72.50;100964.22;5077409;28;20266;-73
2022/10/13 09:01:05;;;;;;;1.35;1.35;;;;;;;21.13;70.84;100967.53;5075696;28;20298;-73
2022/10/13 09:03:45;;;;;;;0.80;0.80;;;;;;;20.90;68.34;100968.69;5058228;28;20706;-72
2022/10/13 09:06:16;;;;;;;0.70;0.70;;;;;;;20.98;65.71;100964.19;5050401;28;20203;-73
2022/10/13 09:08:52;;;;;;;0.57;0.57;;;;;;;20.77;64.92;100954.78;5063107;28;20207;-72
2022/10/13 09:11:20;;;;;;;0.82;0.82;;;;;;;21.18;63.03;100981.53;5078264;28;20241;-73
2022/10/13 09:13:46;;;;;;;0.60;0.60;;;;;;;21.17;62.18;100966.59;5070109;28;20252;-73
2022/10/13 09:16:13;;;;;;;0.60;0.60;;;;;;;21.44;61.28;100982.94;5078244;28;20221;-73
2022/10/13 09:18:40;;;;;;;0.60;0.60;;;;;;;21.63;61.24;100979.09;5071991;28;20241;-71
2022/10/13 09:21:16;;;;;;;0.65;0.65;;;;;;;21.62;59.26;100982.63;5051486;28;20195;-70
2022/10/13 09:23:44;;;;;;;0.70;0.70;;;;;;;21.67;59.42;100970.22;5069832;28;20210;-72
2022/10/13 09:26:19;;;;;;;0.60;0.60;;;;;;;21.58;57.77;100968.59;5070300;28;20284;-72
2022/10/13 09:28:48;;;;;;;0.60;0.60;;;;;;;21.64;58.82;100949.16;5075468;28;20766;-71
2022/10/13 09:31:18;;;;;;;0.70;0.70;;;;;;;21.92;60.20;100968.97;5078383;28;20741;-74
2022/10/13 09:33:45;;;;;;;0.70;0.70;;;;;;;21.62;58.86;100962.38;5071270;28;20218;-71
2022/10/13 09:36:14;;;;;;;0.60;0.60;;;;;;;21.98;57.15;100960.03;5070147;28;20667;-73
2022/10/13 09:38:43;;;;;;;0.60;0.60;;;;;;;22.30;55.91;100951.53;5074999;28;20195;-72
2022/10/13 09:41:19;;;;;;;0.60;0.60;;;;;;;22.08;57.57;100959.00;5081135;28;20667;-73
2022/10/13 09:44:00;;;;;;;1.58;1.58;;;;;;;21.93;55.77;100957.50;5072025;28;20210;-72
2022/10/13 09:46:30;;;;;;;0.73;0.73;;;;;;;21.72;56.79;100916.44;5061534;28;20202;-72
2022/10/13 09:49:02;;;;;;;0.60;0.60;;;;;;;21.76;57.38;100935.75;5079385;28;20250;-74
2022/10/13 09:51:38;;;;;;;0.70;0.70;;;;;;;22.08;53.59;100946.63;5047862;28;20915;-74
2022/10/13 09:54:07;;;;;;;0.70;0.70;;;;;;;21.70;53.75;100943.78;5085941;28;20743;-74
2022/10/13 09:56:44;;;;;;;0.50;0.50;;;;;;;21.54;54.36;100921.19;5073675;28;20290;-74
2022/10/13 09:59:21;;;;;;;0.65;0.65;;;;;;;21.84;53.35;100949.69;5073623;28;20214;-75
2022/10/13 10:01:53;;;;;;;0.60;0.60;;;;;;;21.61;52.89;100939.53;5071839;28;20201;-73
2022/10/13 10:04:23;;;;;;;0.60;0.60;;;;;;;21.98;53.80;100939.78;5091710;28;20224;-76
2022/10/13 10:06:50;;;;;;;0.60;0.60;;;;;;;21.79;52.58;100906.66;5082787;28;20194;-73
2022/10/13 10:09:33;;;;;;;0.60;0.60;;;;;;;22.03;52.28;100939.72;5070767;28;20207;-73
2022/10/13 10:12:04;;;;;;;0.60;0.60;;;;;;;22.13;53.44;100936.88;5060810;28;20221;-73
2022/10/13 10:14:33;;;;;;;0.60;0.60;;;;;;;21.89;52.60;100933.78;5081993;28;20286;-74
2022/10/13 10:17:11;;;;;;;1.13;1.02;;;;;;;21.98;52.95;100931.00;5054624;28;20211;-74
2022/10/13 10:19:51;;;;;;;0.70;0.70;;;;;;;22.25;51.99;100896.16;5080294;28;20214;-73
2022/10/13 10:22:30;;;;;;;0.80;0.80;;;;;;;22.56;52.47;100917.53;5072948;28;20575;-72
2022/10/13 10:25:09;;;;;;;0.60;0.60;;;;;;;22.14;52.51;100914.84;5081654;28;20280;-76
2022/10/13 10:27:42;;;;;;;0.52;0.52;;;;;;;21.74;53.44;100892.66;5076228;28;20210;-74
2022/10/13 10:30:15;;;;;;;0.60;0.60;;;;;;;21.75;53.94;100912.91;5093132;28;20298;-72
2022/10/13 10:32:52;;;;;;;0.60;0.60;;;;;;;22.16;53.73;100902.47;5093286;28;20261;-72
2022/10/13 10:35:25;;;;;;;0.60;0.60;;;;;;;22.16;52.04;100907.75;5092719;28;20206;-72
2022/10/13 10:38:06;;;;;;;0.60;0.60;;;;;;;21.90;53.06;100907.38;5092986;28;20206;-72
2022/10/13 10:40:39;;;;;;;0.68;0.68;;;;;;;21.94;53.59;100905.56;5092097;28;20206;-73
2022/10/13 10:43:39;;;;;;;0.60;0.60;;;;;;;22.51;52.35;100900.91;5092253;28;20205;-74
2022/10/13 10:46:15;;;;;;;0.70;0.70;;;;;;;22.28;51.85;100855.56;5050135;28;20584;-74
2022/10/13 10:48:45;;;;;;;0.60;0.60;;;;;;;22.39;51.61;100867.66;5049266;28;20211;-73
2022/10/13 10:51:13;;;;;;;0.73;0.73;;;;;;;22.08;51.50;100880.59;5017681;28;20318;-74
2022/10/13 10:53:53;;;;;;;0.60;0.60;;;;;;;22.15;50.97;100873.44;5050472;28;20231;-73
2022/10/13 10:56:28;;;;;;;0.60;0.60;;;;;;;22.39;50.69;100877.38;5050677;28;20207;-73
2022/10/13 10:59:06;;;;;;;0.60;0.60;;;;;;;22.15;50.14;100858.44;5050208;28;20206;-73
2022/10/13 11:01:41;;;;;;;0.60;0.60;;;;;;;22.19;50.17;100865.41;5049953;28;20203;-73
2022/10/13 11:04:34;;;;;;;0.60;0.60;;;;;;;22.54;50.31;100862.06;5050475;28;20199;-73
2022/10/13 11:07:01;;;;;;;0.80;0.80;;;;;;;22.60;48.88;100861.91;5050481;28;20245;-73
2022/10/13 11:10:19;;;;;;;0.60;0.60;;;;;;;22.13;48.00;100859.38;5050229;28;20204;-73
2022/10/13 11:13:06;;;;;;;1.05;1.00;;;;;;;21.97;48.23;100857.97;5050026;28;20223;-73
2022/10/13 11:15:44;;;;;;;4.47;2.08;;;;;;;21.99;46.72;100851.75;5049972;28;20203;-74
2022/10/13 11:18:52;;;;;;;0.60;0.60;;;;;;;22.16;46.74;100838.19;5049819;28;20722;-74
2022/10/13 11:21:19;;;;;;;0.60;0.60;;;;;;;21.93;45.04;100820.16;5050042;28;20771;-73
2022/10/13 11:23:48;;;;;;;0.60;0.60;;;;;;;22.26;44.01;100833.59;5091992;28;20221;-73
2022/10/13 11:26:27;;;;;;;0.60;0.60;;;;;;;21.91;43.56;100827.25;5092201;28;20273;-73
2022/10/13 11:28:54;;;;;;;0.60;0.60;;;;;;;21.95;42.85;100826.28;5092253;28;20194;-73
2022/10/13 11:31:29;;;;;;;0.60;0.60;;;;;;;22.06;41.79;100841.91;5092202;28;20220;-73